createdAt,value
2022-08-10T00:00:22.211Z,27.10
2022-08-10T00:03:09.959Z,26.90
2022-08-10T00:05:56.662Z,26.70
2022-08-10T00:08:42.725Z,26.60
2022-08-10T00:11:28.242Z,26.80
2022-08-10T00:14:13.994Z,26.90
2022-08-10T00:16:59.609Z,26.80
2022-08-10T00:20:03.954Z,26.90
2022-08-10T00:22:57.478Z,26.90
2022-08-10T00:25:44.107Z,26.90
2022-08-10T00:28:31.459Z,26.90
2022-08-10T00:31:17.234Z,26.20
2022-08-10T00:34:03.908Z,25.80
2022-08-10T00:36:49.668Z,24.90
2022-08-10T00:39:36.350Z,24.60
2022-08-10T00:42:24.766Z,24.60
2022-08-10T00:45:11.066Z,24.70
2022-08-10T00:47:56.705Z,24.80
2022-08-10T00:50:42.366Z,24.60
2022-08-10T00:53:29.302Z,24.60
2022-08-10T00:57:12.893Z,24.40
2022-08-10T00:59:21.321Z,25.00
2022-08-10T01:02:11.442Z,24.80
2022-08-10T01:05:01.892Z,24.80
2022-08-10T01:07:56.655Z,25.20
2022-08-10T01:12:34.255Z,25.10
2022-08-10T01:14:33.570Z,25.00
2022-08-10T01:17:50.507Z,24.60
2022-08-10T01:20:43.023Z,24.30
2022-08-10T01:23:46.585Z,24.40
2022-08-10T01:26:50.711Z,24.40
2022-08-10T01:29:52.624Z,24.20
2022-08-10T01:32:59.376Z,24.00
2022-08-10T01:35:55.831Z,24.10
2022-08-10T01:38:45.855Z,24.30
2022-08-10T01:41:55.503Z,24.80
2022-08-10T01:44:47.602Z,25.40
2022-08-10T01:48:00.224Z,25.40
2022-08-10T01:51:15.163Z,25.10
2022-08-10T01:54:03.848Z,24.80
2022-08-10T01:56:53.676Z,24.80
2022-08-10T01:59:41.837Z,24.80
2022-08-10T02:02:43.750Z,24.90
2022-08-10T02:05:32.563Z,25.10
2022-08-10T02:08:21.053Z,25.00
2022-08-10T02:11:08.332Z,24.90
2022-08-10T02:13:55.725Z,25.20
2022-08-10T02:16:43.850Z,25.40
2022-08-10T02:19:30.858Z,25.30
2022-08-10T02:22:38.394Z,24.50
2022-08-10T02:25:42.082Z,24.30
2022-08-10T02:28:31.789Z,23.70
2022-08-10T02:31:22.324Z,23.50
2022-08-10T02:34:11.448Z,23.80
2022-08-10T02:36:58.516Z,24.50
2022-08-10T02:39:44.248Z,24.80
2022-08-10T02:45:22.329Z,24.90
2022-08-10T02:46:08.339Z,24.70
2022-08-10T02:49:03.599Z,24.70
2022-08-10T02:52:08.150Z,24.70
2022-08-10T02:55:06.068Z,24.80
2022-08-10T02:58:13.307Z,24.60
2022-08-10T03:01:09.417Z,24.60
2022-08-10T03:03:59.278Z,24.10
2022-08-10T03:06:54.545Z,24.30
2022-08-10T03:09:41.703Z,24.80
2022-08-10T03:12:47.206Z,25.00
2022-08-10T03:15:34.675Z,25.20
2022-08-10T03:18:24.558Z,25.20
2022-08-10T03:21:12.021Z,25.30
2022-08-10T03:24:01.546Z,25.00
2022-08-10T03:26:47.871Z,24.80
2022-08-10T03:30:29.359Z,24.80
2022-08-10T03:32:39.906Z,24.60
2022-08-10T03:35:26.498Z,24.70
2022-08-10T03:38:12.202Z,24.70
2022-08-10T03:41:01.836Z,24.80
2022-08-10T03:43:49.752Z,24.90
2022-08-10T03:46:39.012Z,24.80
2022-08-10T03:49:26.480Z,24.80
2022-08-10T03:52:13.187Z,24.80
2022-08-10T03:54:59.676Z,24.90
2022-08-10T03:57:49.465Z,24.90
2022-08-10T04:00:36.054Z,24.90
2022-08-10T04:03:22.301Z,24.80
2022-08-10T04:06:15.299Z,24.80
2022-08-10T04:09:02.230Z,24.80
2022-08-10T04:11:48.369Z,24.80
2022-08-10T04:14:38.354Z,24.90
2022-08-10T04:18:04.514Z,25.00
2022-08-10T04:20:49.626Z,25.10
2022-08-10T04:23:38.226Z,25.10
2022-08-10T04:26:24.593Z,25.20
2022-08-10T04:29:10.325Z,25.20
2022-08-10T04:31:56.364Z,25.30
2022-08-10T04:34:46.340Z,25.30
2022-08-10T04:37:34.737Z,25.40
2022-08-10T04:40:25.254Z,25.50
2022-08-10T04:43:16.236Z,24.90
2022-08-10T04:46:02.016Z,23.90
2022-08-10T04:49:01.524Z,23.70
2022-08-10T04:51:47.876Z,23.60
2022-08-10T04:54:33.437Z,23.70
2022-08-10T04:57:19.188Z,23.50
2022-08-10T05:00:08.746Z,23.60
2022-08-10T05:03:04.418Z,23.50
2022-08-10T05:05:50.231Z,23.70
2022-08-10T05:08:38.161Z,23.80
2022-08-10T05:11:24.313Z,23.80
2022-08-10T05:14:10.021Z,23.80
2022-08-10T05:16:55.651Z,24.10
2022-08-10T05:20:04.244Z,24.30
2022-08-10T05:22:47.253Z,24.10
2022-08-10T05:25:37.262Z,23.80
2022-08-10T05:28:23.650Z,24.20
2022-08-10T05:31:22.428Z,24.80
2022-08-10T05:34:20.792Z,25.10
2022-08-10T05:37:07.354Z,24.80
2022-08-10T05:40:14.252Z,24.90
2022-08-10T05:42:59.890Z,25.50
2022-08-10T05:46:17.955Z,25.90
2022-08-10T05:48:56.326Z,25.90
2022-08-10T05:51:45.840Z,25.10
2022-08-10T05:54:31.656Z,24.90
2022-08-10T05:57:19.657Z,24.90
2022-08-10T06:00:37.098Z,24.90
2022-08-10T06:03:17.259Z,25.00
2022-08-10T06:06:12.409Z,25.40
2022-08-10T06:09:00.709Z,26.00
2022-08-10T06:12:28.354Z,26.10
2022-08-10T06:15:05.588Z,25.60
2022-08-10T06:17:59.123Z,25.50
2022-08-10T06:20:47.628Z,25.60
2022-08-10T06:23:34.762Z,25.40
2022-08-10T06:26:21.753Z,25.10
2022-08-10T06:29:13.597Z,25.10
2022-08-10T06:32:01.774Z,25.10
2022-08-10T06:34:50.918Z,25.30
2022-08-10T06:37:38.263Z,25.20
2022-08-10T06:40:29.653Z,25.00
2022-08-10T06:43:18.905Z,25.10
2022-08-10T06:46:12.521Z,25.10
2022-08-10T06:49:01.579Z,25.40
2022-08-10T06:51:57.213Z,26.00
2022-08-10T06:54:44.836Z,26.40
2022-08-10T06:57:32.552Z,26.90
2022-08-10T07:00:20.372Z,26.80
2022-08-10T07:03:11.596Z,27.10
2022-08-10T07:05:59.439Z,26.90
2022-08-10T07:08:48.862Z,27.30
2022-08-10T07:11:35.773Z,27.60
2022-08-10T07:14:22.775Z,27.40
2022-08-10T07:17:15.310Z,27.30
2022-08-10T07:20:04.219Z,27.50
2022-08-10T07:23:50.720Z,27.10
2022-08-10T07:26:00.953Z,27.20
2022-08-10T07:28:50.956Z,27.30
2022-08-10T07:31:55.528Z,27.50
2022-08-10T07:34:45.065Z,27.40
2022-08-10T07:37:34.945Z,27.50
2022-08-10T07:40:22.494Z,27.30
2022-08-10T07:43:09.841Z,27.30
2022-08-10T07:45:57.119Z,27.10
2022-08-10T07:48:49.175Z,27.40
2022-08-10T07:51:36.399Z,27.30
2022-08-10T07:54:25.237Z,27.20
2022-08-10T07:57:30.951Z,27.10
2022-08-10T08:00:18.531Z,27.30
2022-08-10T08:03:07.538Z,27.10
2022-08-10T08:06:03.350Z,27.40
2022-08-10T08:08:54.958Z,27.10
2022-08-10T08:11:44.027Z,27.50
2022-08-10T08:14:31.420Z,28.30
2022-08-10T08:17:19.116Z,28.70
2022-08-10T08:20:09.268Z,29.00
2022-08-10T08:24:13.657Z,29.00
2022-08-10T08:26:03.856Z,29.10
2022-08-10T08:28:50.742Z,29.00
2022-08-10T08:31:36.942Z,29.10
2022-08-10T08:34:42.642Z,29.50
2022-08-10T08:38:33.791Z,29.60
2022-08-10T08:40:37.948Z,29.30
2022-08-10T08:43:42.341Z,29.00
2022-08-10T08:46:35.403Z,28.80
2022-08-10T08:50:05.141Z,29.40
2022-08-10T08:52:53.916Z,30.00
2022-08-10T08:56:04.022Z,30.30
2022-08-10T08:59:00.866Z,29.40
2022-08-10T09:02:14.358Z,29.50
2022-08-10T09:05:08.844Z,31.60
2022-08-10T09:08:25.024Z,30.90
2022-08-10T09:11:40.739Z,31.80
2022-08-10T09:14:49.474Z,33.40
2022-08-10T09:17:47.845Z,33.00
2022-08-10T09:20:42.289Z,32.60
2022-08-10T09:24:01.407Z,31.20
2022-08-10T09:26:52.056Z,30.90
2022-08-10T09:29:52.271Z,31.10
2022-08-10T09:36:15.357Z,31.50
2022-08-10T09:36:23.508Z,31.10
2022-08-10T09:40:50.061Z,32.90
2022-08-10T09:42:42.566Z,34.00
2022-08-10T09:45:46.609Z,33.80
2022-08-10T09:49:02.624Z,34.70
2022-08-10T09:51:51.362Z,35.40
2022-08-10T09:54:49.907Z,34.30
2022-08-10T09:57:55.403Z,32.10
2022-08-10T10:00:51.235Z,31.80
2022-08-10T10:03:50.508Z,33.40
2022-08-10T10:06:46.002Z,33.40
2022-08-10T10:09:52.009Z,34.30
2022-08-10T10:13:03.390Z,34.70
2022-08-10T10:15:59.632Z,32.80
2022-08-10T10:19:21.610Z,33.40
2022-08-10T10:22:48.875Z,32.80
2022-08-10T10:25:51.227Z,32.30
2022-08-10T10:29:57.959Z,33.10
2022-08-10T10:33:00.720Z,34.10
2022-08-10T10:35:55.093Z,35.00
2022-08-10T10:38:44.098Z,35.60
2022-08-10T10:42:04.430Z,34.50
2022-08-10T10:45:06.852Z,33.80
2022-08-10T10:48:17.871Z,34.70
2022-08-10T10:51:25.352Z,34.40
2022-08-10T10:54:22.006Z,33.40
2022-08-10T10:57:59.434Z,34.80
2022-08-10T11:01:04.654Z,34.70
2022-08-10T11:04:06.459Z,35.70
2022-08-10T11:07:23.809Z,34.10
2022-08-10T11:10:47.489Z,33.50
2022-08-10T11:14:25.929Z,34.20
2022-08-10T11:17:02.847Z,35.30
2022-08-10T11:20:11.092Z,35.20
2022-08-10T11:23:18.348Z,35.00
2022-08-10T11:26:26.798Z,34.90
2022-08-10T11:29:36.448Z,35.50
2022-08-10T11:32:35.551Z,34.80
2022-08-10T11:35:36.455Z,35.60
2022-08-10T11:39:12.961Z,36.70
2022-08-10T11:42:16.513Z,36.90
2022-08-10T11:45:31.143Z,37.80
2022-08-10T11:48:53.261Z,38.20
2022-08-10T11:51:50.315Z,38.00
2022-08-10T11:54:42.893Z,37.50
2022-08-10T11:57:54.183Z,37.60
2022-08-10T12:00:40.077Z,37.90
2022-08-10T12:03:31.355Z,36.40
2022-08-10T12:06:45.455Z,34.70
2022-08-10T12:10:11.203Z,35.20
2022-08-10T12:12:45.537Z,35.70
2022-08-10T12:15:37.865Z,37.40
2022-08-10T12:18:48.384Z,36.20
2022-08-10T12:22:05.125Z,34.90
2022-08-10T12:25:04.905Z,36.70
2022-08-10T12:28:00.454Z,40.40
2022-08-10T12:30:52.136Z,38.30
2022-08-10T12:34:15.999Z,37.10
2022-08-10T12:37:17.016Z,36.90
2022-08-10T12:40:36.912Z,36.00
2022-08-10T12:44:08.398Z,35.00
2022-08-10T12:46:39.968Z,34.30
2022-08-10T12:50:33.044Z,34.50
2022-08-10T12:53:38.678Z,36.70
2022-08-10T12:56:31.489Z,34.40
2022-08-10T12:59:20.145Z,35.10
2022-08-10T13:02:10.508Z,35.90
2022-08-10T13:04:59.743Z,37.60
2022-08-10T13:08:25.435Z,39.10
2022-08-10T13:10:59.710Z,38.10
2022-08-10T13:13:49.268Z,36.00
2022-08-10T13:16:38.385Z,35.10
2022-08-10T13:19:27.549Z,33.80
2022-08-10T13:22:30.553Z,33.40
2022-08-10T13:25:22.252Z,33.80
2022-08-10T13:28:37.263Z,33.90
2022-08-10T13:31:20.485Z,34.10
2022-08-10T13:34:43.302Z,33.20
2022-08-10T13:37:21.000Z,33.00
2022-08-10T13:40:11.811Z,32.80
2022-08-10T13:43:00.233Z,33.00
2022-08-10T13:45:50.020Z,33.50
2022-08-10T13:48:40.665Z,33.10
2022-08-10T13:51:54.059Z,33.40
2022-08-10T13:54:43.989Z,33.10
2022-08-10T13:57:36.819Z,33.30
2022-08-10T14:00:38.502Z,33.50
2022-08-10T14:03:26.015Z,33.30
2022-08-10T14:06:15.361Z,33.00
2022-08-10T14:09:06.000Z,33.10
2022-08-10T14:11:53.234Z,33.30
2022-08-10T14:14:41.743Z,32.90
2022-08-10T14:17:28.212Z,32.90
2022-08-10T14:20:20.923Z,32.80
2022-08-10T14:23:12.359Z,32.80
2022-08-10T14:26:09.181Z,32.40
2022-08-10T14:29:18.897Z,32.10
2022-08-10T14:32:08.459Z,32.50
2022-08-10T14:36:16.885Z,32.90
2022-08-10T14:38:11.687Z,32.60
2022-08-10T14:40:59.770Z,32.70
2022-08-10T14:43:54.981Z,32.70
2022-08-10T14:46:46.203Z,32.90
2022-08-10T14:49:57.648Z,32.80
2022-08-10T14:52:45.330Z,32.90
2022-08-10T14:55:31.492Z,32.20
2022-08-10T14:58:58.900Z,32.00
2022-08-10T15:02:40.888Z,32.10
2022-08-10T15:05:09.454Z,32.20
2022-08-10T15:07:58.979Z,32.40
2022-08-10T15:10:50.850Z,32.20
2022-08-10T15:14:40.962Z,32.50
2022-08-10T15:16:59.721Z,32.40
2022-08-10T15:20:04.311Z,32.10
2022-08-10T15:23:05.313Z,32.00
2022-08-10T15:25:57.523Z,32.40
2022-08-10T15:29:22.519Z,32.30
2022-08-10T15:32:13.816Z,32.10
2022-08-10T15:35:20.974Z,32.20
2022-08-10T15:38:16.394Z,32.90
2022-08-10T15:41:07.177Z,31.90
2022-08-10T15:43:59.844Z,32.00
2022-08-10T15:46:53.354Z,32.20
2022-08-10T15:49:52.444Z,32.00
2022-08-10T15:53:00.890Z,32.10
2022-08-10T15:55:53.645Z,31.90
2022-08-10T15:58:51.417Z,32.20
2022-08-10T16:02:14.355Z,32.00
2022-08-10T16:05:02.422Z,32.20
2022-08-10T16:07:53.025Z,31.90
2022-08-10T16:11:05.634Z,31.80
2022-08-10T16:14:00.672Z,31.90
2022-08-10T16:16:57.713Z,31.80
2022-08-10T16:20:02.444Z,31.90
2022-08-10T16:22:49.887Z,31.80
2022-08-10T16:25:48.445Z,31.80
2022-08-10T16:28:55.613Z,31.70
2022-08-10T16:32:06.785Z,31.80
2022-08-10T16:34:55.514Z,31.40
2022-08-10T16:37:57.702Z,31.80
2022-08-10T16:40:49.985Z,31.60
2022-08-10T16:43:37.222Z,31.70
2022-08-10T16:46:24.025Z,31.70
2022-08-10T16:49:11.190Z,31.70
2022-08-10T16:52:00.898Z,31.80
2022-08-10T16:54:50.290Z,32.00
2022-08-10T16:57:41.562Z,31.70
2022-08-10T17:00:29.084Z,31.70
2022-08-10T17:03:17.341Z,31.50
2022-08-10T17:06:35.993Z,31.50
2022-08-10T17:09:27.970Z,31.60
2022-08-10T17:12:17.701Z,31.50
2022-08-10T17:15:09.677Z,31.40
2022-08-10T17:18:00.906Z,31.20
2022-08-10T17:20:47.052Z,31.30
2022-08-10T17:23:35.619Z,31.10
2022-08-10T17:26:37.036Z,31.10
2022-08-10T17:29:57.757Z,31.20
2022-08-10T17:32:44.303Z,31.10
2022-08-10T17:35:36.088Z,31.00
2022-08-10T17:38:24.461Z,30.80
2022-08-10T17:41:12.999Z,30.80
2022-08-10T17:44:06.452Z,30.70
2022-08-10T17:46:53.851Z,30.70
2022-08-10T17:49:41.849Z,30.60
2022-08-10T17:52:31.764Z,30.50
2022-08-10T17:55:18.162Z,30.50
2022-08-10T17:58:10.767Z,30.40
2022-08-10T18:01:38.399Z,30.40
2022-08-10T18:04:17.677Z,30.30
2022-08-10T18:07:04.951Z,30.30
2022-08-10T18:09:56.169Z,30.30
2022-08-10T18:12:54.408Z,30.30
2022-08-10T18:15:44.074Z,30.30
2022-08-10T18:18:31.916Z,30.20
2022-08-10T18:21:21.134Z,30.10
2022-08-10T18:24:16.090Z,30.00
2022-08-10T18:27:04.615Z,30.00
2022-08-10T18:29:54.584Z,29.90
2022-08-10T18:32:44.719Z,29.80
2022-08-10T18:35:35.087Z,29.80
2022-08-10T18:38:24.324Z,29.20
2022-08-10T18:41:15.798Z,29.70
2022-08-10T18:44:12.232Z,29.80
2022-08-10T18:47:06.448Z,29.80
2022-08-10T18:50:14.333Z,29.90
2022-08-10T18:53:04.535Z,29.90
2022-08-10T18:56:10.454Z,29.70
2022-08-10T18:59:05.509Z,29.60
2022-08-10T19:02:30.443Z,29.40
2022-08-10T19:05:38.227Z,29.40
2022-08-10T19:08:57.118Z,29.50
2022-08-10T19:12:05.535Z,29.50
2022-08-10T19:15:34.618Z,29.40
2022-08-10T19:18:32.073Z,29.60
2022-08-10T19:21:28.735Z,29.40
2022-08-10T19:24:48.066Z,29.50
2022-08-10T19:27:53.080Z,29.60
2022-08-10T19:30:54.512Z,29.40
2022-08-10T19:34:21.604Z,29.30
2022-08-10T19:37:32.514Z,29.30
2022-08-10T19:40:44.633Z,29.20
2022-08-10T19:44:01.281Z,29.10
2022-08-10T19:47:29.654Z,29.00
2022-08-10T19:50:33.989Z,29.00
2022-08-10T19:53:24.937Z,28.90
2022-08-10T19:56:51.425Z,29.00
2022-08-10T20:00:18.694Z,28.90
2022-08-10T20:03:52.855Z,28.80
2022-08-10T20:06:47.303Z,28.70
2022-08-10T20:09:47.481Z,28.60
2022-08-10T20:12:39.717Z,28.60
2022-08-10T20:15:42.638Z,28.50
2022-08-10T20:18:43.441Z,28.30
2022-08-10T20:21:36.414Z,28.30
2022-08-10T20:24:35.818Z,28.30
2022-08-10T20:27:59.557Z,28.10
2022-08-10T20:31:06.242Z,27.90
2022-08-10T20:34:01.499Z,28.10
2022-08-10T20:37:43.487Z,28.20
2022-08-10T20:40:40.943Z,28.20
2022-08-10T20:43:48.437Z,28.00
2022-08-10T20:46:45.198Z,27.90
2022-08-10T20:49:45.817Z,27.70
2022-08-10T20:52:33.747Z,27.60
2022-08-10T20:55:22.430Z,27.70
2022-08-10T20:58:30.034Z,27.50
2022-08-10T21:02:07.482Z,27.50
2022-08-10T21:04:58.549Z,27.60
2022-08-10T21:08:11.634Z,27.40
2022-08-10T21:11:14.240Z,27.30
2022-08-10T21:14:17.927Z,27.30
2022-08-10T21:17:27.010Z,27.30
2022-08-10T21:20:30.472Z,27.30
2022-08-10T21:23:19.666Z,27.20
2022-08-10T21:26:14.963Z,27.10
2022-08-10T21:29:22.414Z,27.00
2022-08-10T21:32:26.377Z,26.90
2022-08-10T21:35:36.946Z,27.00
2022-08-10T21:38:40.939Z,27.00
2022-08-10T21:42:16.918Z,26.90
2022-08-10T21:46:00.340Z,27.00
2022-08-10T21:49:17.241Z,27.10
2022-08-10T21:52:38.942Z,26.90
2022-08-10T21:56:14.354Z,27.00
2022-08-10T21:59:45.733Z,27.00
2022-08-10T22:02:54.552Z,27.00
2022-08-10T22:05:59.482Z,27.10
2022-08-10T22:09:11.086Z,27.20
2022-08-10T22:16:05.536Z,26.90
2022-08-10T22:19:18.009Z,26.80
2022-08-10T22:22:30.599Z,27.00
2022-08-10T22:26:08.320Z,27.10
2022-08-10T22:29:16.576Z,27.60
2022-08-10T22:31:28.795Z,26.90
2022-08-10T22:32:37.580Z,27.70
2022-08-10T22:36:04.195Z,27.50
2022-08-10T22:40:12.101Z,27.80
2022-08-10T22:43:10.316Z,27.70
2022-08-10T22:46:19.149Z,27.60
2022-08-10T22:49:06.153Z,27.70
2022-08-10T22:52:06.816Z,27.70
2022-08-10T22:55:26.404Z,27.80
2022-08-10T22:58:35.152Z,27.70
2022-08-10T23:02:08.075Z,27.70
2022-08-10T23:04:58.577Z,27.40
2022-08-10T23:07:57.256Z,27.40
2022-08-10T23:10:45.964Z,27.40
2022-08-10T23:13:37.761Z,27.50
2022-08-10T23:16:46.171Z,27.40
2022-08-10T23:19:42.502Z,26.90
2022-08-10T23:22:38.318Z,26.80
2022-08-10T23:25:28.308Z,26.60
2022-08-10T23:28:19.873Z,26.50
2022-08-10T23:31:50.191Z,26.70
2022-08-10T23:34:33.882Z,26.90
2022-08-10T23:37:20.341Z,27.10
2022-08-10T23:40:13.226Z,26.90
2022-08-10T23:42:59.510Z,26.40
2022-08-10T23:45:53.202Z,26.30
2022-08-10T23:48:44.818Z,26.10
2022-08-10T23:51:38.698Z,25.90
2022-08-10T23:54:46.969Z,25.80
2022-08-10T23:57:34.430Z,25.80
